Lima, New York
Current Conditions -  °F | °C
As of 3:54 AM on Sunday 23 Nov 2014 (Local Time) from KROC Reporting Station
Overcast Overcast  
Wind Chill: 42°   Ceiling: 3000
Heat Index: 45°   Visibility: 10mi
Dew Point: 40°   Wind: 6mph
Humidity: 82%   Direction: 200°SSW
Pressure: 29.99"   Gusts: NA
Location:  42.9°N, 77.61°W
Report Text: KROC 230854Z 20005KT 10SM OVC030 07/04 A2999 RMK AO2 SLP162 60003 T00720044 50000
Loading
Personal Weather Stations






























Interactive Weather Map New forecast layout! Learn more

10-Day Weather Forecast

Advertisements
Track Severe Weather on mobile